createdAt,value
2022-09-07T00:00:03.893Z,17.17
2022-09-07T00:02:30.473Z,17.15
2022-09-07T00:04:57.132Z,17.13
2022-09-07T00:07:23.684Z,17.07
2022-09-07T00:09:51.477Z,17.10
2022-09-07T00:12:18.248Z,16.97
2022-09-07T00:14:44.802Z,16.90
2022-09-07T00:17:11.405Z,16.72
2022-09-07T00:19:38.041Z,16.57
2022-09-07T00:22:04.545Z,16.51
2022-09-07T00:24:31.065Z,16.40
2022-09-07T00:26:57.833Z,16.35
2022-09-07T00:29:24.497Z,16.31
2022-09-07T00:31:51.132Z,16.34
2022-09-07T00:34:17.703Z,16.35
2022-09-07T00:36:44.221Z,16.34
2022-09-07T00:39:10.716Z,16.30
2022-09-07T00:41:37.251Z,16.36
2022-09-07T00:44:42.411Z,16.37
2022-09-07T00:47:17.669Z,16.38
2022-09-07T00:49:47.920Z,16.37
2022-09-07T00:52:15.593Z,16.37
2022-09-07T00:54:47.335Z,16.40
2022-09-07T00:57:14.337Z,16.42
2022-09-07T00:59:46.179Z,16.41
2022-09-07T01:02:13.993Z,16.46
2022-09-07T01:04:40.933Z,16.55
2022-09-07T01:07:08.193Z,16.53
2022-09-07T01:09:35.157Z,16.59
2022-09-07T01:12:02.433Z,16.63
2022-09-07T01:14:32.573Z,16.67
2022-09-07T01:17:17.717Z,16.62
2022-09-07T01:20:18.522Z,16.66
2022-09-07T01:23:03.863Z,16.67
2022-09-07T01:25:39.471Z,16.71
2022-09-07T01:28:30.354Z,16.73
2022-09-07T01:30:59.694Z,16.69
2022-09-07T01:33:57.219Z,16.66
2022-09-07T01:36:50.807Z,16.68
2022-09-07T01:39:18.320Z,16.74
2022-09-07T01:42:10.966Z,16.73
2022-09-07T01:44:39.279Z,16.76
2022-09-07T01:47:30.677Z,16.78
2022-09-07T01:50:07.593Z,16.81
2022-09-07T01:52:41.497Z,16.78
2022-09-07T01:55:22.744Z,16.76
2022-09-07T01:57:59.709Z,16.66
2022-09-07T02:00:26.500Z,16.72
2022-09-07T02:03:00.040Z,16.71
2022-09-07T02:05:47.037Z,16.75
2022-09-07T02:08:17.728Z,16.76
2022-09-07T02:10:50.654Z,16.76
2022-09-07T02:13:24.405Z,16.83
2022-09-07T02:15:52.003Z,16.83
2022-09-07T02:18:20.003Z,16.81
2022-09-07T02:20:49.973Z,16.81
2022-09-07T02:23:23.166Z,16.77
2022-09-07T02:25:58.831Z,16.71
2022-09-07T02:28:36.544Z,16.67
2022-09-07T02:31:03.501Z,16.64
2022-09-07T02:33:30.369Z,16.63
2022-09-07T02:35:57.466Z,16.62
2022-09-07T02:38:24.964Z,16.60
2022-09-07T02:40:56.260Z,16.58
2022-09-07T02:43:23.735Z,16.55
2022-09-07T02:46:05.513Z,16.50
2022-09-07T02:48:51.274Z,16.51
2022-09-07T02:51:41.882Z,16.45
2022-09-07T02:54:12.862Z,16.44
2022-09-07T02:57:15.082Z,16.46
2022-09-07T02:59:44.286Z,16.45
2022-09-07T03:02:20.847Z,16.45
2022-09-07T03:05:09.018Z,16.43
2022-09-07T03:07:44.414Z,16.43
2022-09-07T03:10:12.569Z,16.32
2022-09-07T03:12:40.871Z,16.24
2022-09-07T03:15:09.699Z,16.19
2022-09-07T03:17:36.336Z,16.20
2022-09-07T03:20:03.268Z,16.16
2022-09-07T03:22:33.862Z,16.14
2022-09-07T03:25:00.793Z,16.20
2022-09-07T03:27:27.358Z,16.16
2022-09-07T03:29:53.894Z,16.22
2022-09-07T03:32:20.399Z,16.22
2022-09-07T03:34:48.440Z,16.22
2022-09-07T03:37:15.034Z,16.27
2022-09-07T03:39:41.598Z,16.22
2022-09-07T03:42:08.108Z,16.19
2022-09-07T03:44:34.632Z,16.20
2022-09-07T03:47:01.322Z,16.18
2022-09-07T03:49:27.968Z,16.21
2022-09-07T03:51:54.507Z,16.20
2022-09-07T03:54:21.012Z,16.22
2022-09-07T03:56:47.627Z,16.28
2022-09-07T03:59:14.224Z,16.28
2022-09-07T04:01:40.859Z,16.18
2022-09-07T04:04:07.519Z,16.17
2022-09-07T04:06:34.314Z,16.17
2022-09-07T04:09:05.889Z,16.20
2022-09-07T04:11:32.500Z,16.20
2022-09-07T04:13:59.187Z,16.24
2022-09-07T04:16:27.233Z,16.20
2022-09-07T04:18:57.662Z,16.17
2022-09-07T04:21:26.060Z,16.19
2022-09-07T04:23:53.120Z,16.15
2022-09-07T04:26:21.968Z,16.14
2022-09-07T04:28:48.916Z,16.06
2022-09-07T04:31:16.535Z,16.05
2022-09-07T04:33:44.489Z,16.06
2022-09-07T04:36:12.135Z,16.10
2022-09-07T04:38:40.120Z,16.03
2022-09-07T04:41:17.233Z,15.94
2022-09-07T04:43:44.734Z,15.98
2022-09-07T04:46:19.358Z,16.05
2022-09-07T04:48:49.900Z,16.07
2022-09-07T04:51:17.248Z,16.06
2022-09-07T04:53:43.783Z,16.09
2022-09-07T04:56:15.056Z,16.14
2022-09-07T04:58:43.652Z,16.08
2022-09-07T05:01:10.244Z,16.06
2022-09-07T05:03:38.085Z,16.11
2022-09-07T05:06:05.847Z,16.17
2022-09-07T05:08:46.101Z,16.16
2022-09-07T05:11:13.387Z,16.16
2022-09-07T05:13:40.303Z,16.11
2022-09-07T05:16:12.140Z,16.10
2022-09-07T05:18:38.727Z,16.18
2022-09-07T05:21:30.955Z,16.18
2022-09-07T05:24:00.948Z,16.18
2022-09-07T05:27:27.508Z,-148.13
2022-09-07T05:33:03.984Z,-148.13
2022-09-07T05:36:10.662Z,-148.13
2022-09-07T05:39:00.066Z,16.18
2022-09-07T05:42:06.713Z,16.18
2022-09-07T05:47:07.449Z,-148.13
2022-09-07T05:49:37.567Z,-148.13
2022-09-07T05:52:04.308Z,-148.13
2022-09-07T05:54:30.932Z,-148.13
2022-09-07T05:57:44.654Z,-148.13
2022-09-07T06:00:13.172Z,-148.13
2022-09-07T06:02:40.064Z,-148.13
2022-09-07T06:05:07.670Z,-148.13
2022-09-07T06:07:34.175Z,-148.13
2022-09-07T06:12:49.212Z,16.07
2022-09-07T06:15:16.219Z,16.05
2022-09-07T06:17:42.859Z,16.05
2022-09-07T06:20:12.042Z,16.05
2022-09-07T06:22:38.583Z,-148.13
2022-09-07T06:25:05.713Z,16.34
2022-09-07T06:27:32.313Z,16.23
2022-09-07T06:29:58.954Z,16.30
2022-09-07T06:35:12.331Z,16.39
2022-09-07T06:37:39.107Z,16.51
2022-09-07T06:40:06.462Z,16.62
2022-09-07T06:42:33.047Z,16.65
2022-09-07T06:44:59.565Z,16.64
2022-09-07T06:47:26.158Z,16.72
2022-09-07T06:49:52.700Z,16.64
2022-09-07T06:52:19.284Z,16.65
2022-09-07T06:55:01.438Z,16.56
2022-09-07T06:57:28.217Z,16.66
2022-09-07T06:59:54.723Z,16.74
2022-09-07T07:02:21.329Z,16.87
2022-09-07T07:04:47.984Z,-148.13
2022-09-07T07:07:15.538Z,-148.13
2022-09-07T07:09:42.375Z,-148.13
2022-09-07T07:12:10.173Z,-148.13
2022-09-07T07:14:38.661Z,-148.13
2022-09-07T07:17:09.513Z,-148.13
2022-09-07T07:19:36.072Z,-148.13
2022-09-07T07:22:14.415Z,-148.13
2022-09-07T07:24:49.312Z,-148.13
2022-09-07T07:27:15.905Z,-148.13
2022-09-07T07:29:43.218Z,-148.13
2022-09-07T07:32:09.813Z,-148.13
2022-09-07T07:35:13.972Z,-148.13
2022-09-07T07:37:40.814Z,-148.13
2022-09-07T07:40:19.112Z,-148.13
2022-09-07T07:42:50.162Z,-148.13
2022-09-07T07:48:03.624Z,-148.13
2022-09-07T07:50:32.013Z,-148.13
2022-09-07T07:55:46.221Z,-148.13
2022-09-07T07:58:12.932Z,-148.13
2022-09-07T08:00:53.738Z,-148.13
2022-09-07T08:03:22.344Z,-148.13
2022-09-07T08:05:48.907Z,-148.13
2022-09-07T08:08:15.638Z,-148.13
2022-09-07T08:10:42.223Z,-148.13
2022-09-07T08:13:08.688Z,-148.13
2022-09-07T08:15:45.158Z,-148.13
2022-09-07T08:18:12.649Z,-148.13
2022-09-07T08:20:42.610Z,-148.13
2022-09-07T08:23:09.534Z,-148.13
2022-09-07T08:25:36.138Z,-148.13
2022-09-07T08:28:02.946Z,-148.13
2022-09-07T08:30:29.461Z,-148.13
2022-09-07T08:32:55.959Z,-148.13
2022-09-07T08:35:22.422Z,-148.13
2022-09-07T08:37:48.986Z,-148.13
2022-09-07T08:40:19.166Z,-148.13
2022-09-07T08:42:57.802Z,-148.13
2022-09-07T08:45:45.538Z,-148.13
2022-09-07T08:48:15.204Z,-148.13
2022-09-07T08:50:52.915Z,-148.13
2022-09-07T08:53:21.097Z,-148.13
2022-09-07T08:56:00.023Z,-148.13
2022-09-07T08:58:49.191Z,-148.13
2022-09-07T09:01:37.649Z,-148.13
2022-09-07T09:04:16.080Z,-148.13
2022-09-07T09:06:54.027Z,-148.13
2022-09-07T09:09:36.679Z,-148.13
2022-09-07T09:12:18.340Z,-148.13
2022-09-07T09:15:18.089Z,-148.13
2022-09-07T09:17:48.625Z,-148.13
2022-09-07T09:20:33.488Z,-148.13
2022-09-07T09:23:20.338Z,-148.13
2022-09-07T09:25:57.808Z,-148.13
2022-09-07T09:28:26.450Z,-148.13
2022-09-07T09:30:55.497Z,-148.13
2022-09-07T09:33:25.881Z,-148.13
2022-09-07T09:35:54.579Z,-148.13
2022-09-07T09:38:45.384Z,-148.13
2022-09-07T09:41:13.469Z,-148.13
2022-09-07T09:43:56.407Z,-148.13
2022-09-07T09:46:26.622Z,-148.13
2022-09-07T09:49:01.798Z,-148.13
2022-09-07T09:54:34.540Z,-148.13
2022-09-07T09:57:01.327Z,-148.13
2022-09-07T10:05:34.403Z,-148.13
2022-09-07T10:08:01.077Z,-148.13
2022-09-07T10:10:28.717Z,-148.13
2022-09-07T10:12:55.921Z,-148.13
2022-09-07T10:15:29.232Z,-148.13
2022-09-07T10:17:56.067Z,-148.13
2022-09-07T10:20:22.506Z,-148.13
2022-09-07T10:22:52.007Z,-148.13
2022-09-07T10:25:39.595Z,-148.13
2022-09-07T10:28:10.042Z,-148.13
2022-09-07T10:30:42.449Z,-148.13
2022-09-07T10:36:37.486Z,-148.13
2022-09-07T10:39:11.108Z,-148.13
2022-09-07T10:41:49.889Z,-148.13
2022-09-07T10:48:13.730Z,24.60
2022-09-07T10:50:42.928Z,25.69
2022-09-07T10:53:42.301Z,25.26
2022-09-07T10:56:13.168Z,26.05
2022-09-07T10:59:03.600Z,25.68
2022-09-07T11:01:57.431Z,25.96
2022-09-07T11:04:44.333Z,25.74
2022-09-07T11:07:29.376Z,24.71
2022-09-07T11:10:19.327Z,24.65
2022-09-07T11:12:46.786Z,25.09
2022-09-07T11:15:13.187Z,25.10
2022-09-07T11:17:53.316Z,24.97
2022-09-07T11:20:26.090Z,25.36
2022-09-07T11:23:06.354Z,26.34
2022-09-07T11:25:58.604Z,26.07
2022-09-07T11:28:47.149Z,26.33
2022-09-07T11:31:22.540Z,25.79
2022-09-07T11:36:54.102Z,25.48
2022-09-07T11:39:26.358Z,25.90
2022-09-07T11:45:02.650Z,25.82
2022-09-07T11:47:56.223Z,25.44
2022-09-07T11:50:23.758Z,26.03
2022-09-07T11:52:53.838Z,25.91
2022-09-07T11:55:26.056Z,25.44
2022-09-07T11:58:22.811Z,24.95
2022-09-07T12:00:49.811Z,25.03
2022-09-07T12:03:50.070Z,25.07
2022-09-07T12:06:19.721Z,25.60
2022-09-07T12:09:03.173Z,25.30
2022-09-07T12:12:14.190Z,25.59
2022-09-07T12:14:48.163Z,25.06
2022-09-07T12:17:39.369Z,24.45
2022-09-07T12:20:17.864Z,24.70
2022-09-07T12:23:05.598Z,24.51
2022-09-07T12:25:33.693Z,24.13
2022-09-07T12:28:00.956Z,23.75
2022-09-07T12:30:28.128Z,24.32
2022-09-07T12:32:58.811Z,23.98
2022-09-07T12:35:28.301Z,23.80
2022-09-07T12:37:56.261Z,23.92
2022-09-07T12:40:29.181Z,23.65
2022-09-07T12:43:15.869Z,23.45
2022-09-07T12:45:42.442Z,24.45
2022-09-07T12:48:15.268Z,25.45
2022-09-07T12:51:07.864Z,24.84
2022-09-07T12:53:57.884Z,25.43
2022-09-07T12:56:37.382Z,25.26
2022-09-07T12:59:42.617Z,25.13
2022-09-07T13:02:34.192Z,24.93
2022-09-07T13:05:06.376Z,24.74
2022-09-07T13:07:41.760Z,24.45
2022-09-07T13:10:27.679Z,23.98
2022-09-07T13:13:00.510Z,24.20
2022-09-07T13:15:35.261Z,25.00
2022-09-07T13:18:03.545Z,24.94
2022-09-07T13:20:34.805Z,25.30
2022-09-07T13:23:25.013Z,26.02
2022-09-07T13:25:53.718Z,25.83
2022-09-07T13:28:40.604Z,25.25
2022-09-07T13:31:37.080Z,25.12
2022-09-07T13:34:43.804Z,25.76
2022-09-07T13:37:27.401Z,25.19
2022-09-07T13:39:56.620Z,24.47
2022-09-07T13:42:32.065Z,23.94
2022-09-07T13:45:01.419Z,24.55
2022-09-07T13:47:43.023Z,24.18
2022-09-07T13:50:28.375Z,25.40
2022-09-07T13:53:00.725Z,25.78
2022-09-07T13:55:49.035Z,24.66
2022-09-07T13:58:43.497Z,24.59
2022-09-07T14:01:13.004Z,25.28
2022-09-07T14:03:45.444Z,25.33
2022-09-07T14:06:20.642Z,25.37
2022-09-07T14:08:49.313Z,25.54
2022-09-07T14:11:21.708Z,24.99
2022-09-07T14:14:07.233Z,24.29
2022-09-07T14:16:35.004Z,24.16
2022-09-07T14:19:01.967Z,24.56
2022-09-07T14:21:28.474Z,25.25
2022-09-07T14:23:58.201Z,25.07
2022-09-07T14:26:24.764Z,25.03
2022-09-07T14:28:53.590Z,25.81
2022-09-07T14:31:21.520Z,25.94
2022-09-07T14:33:56.730Z,25.77
2022-09-07T14:36:44.078Z,25.50
2022-09-07T14:39:12.719Z,24.81
2022-09-07T14:41:41.369Z,24.70
2022-09-07T14:44:27.442Z,24.22
2022-09-07T14:46:56.871Z,23.79
2022-09-07T14:49:23.890Z,23.64
2022-09-07T14:51:52.877Z,23.86
2022-09-07T14:54:21.500Z,24.07
2022-09-07T14:57:27.375Z,24.57
2022-09-07T14:59:54.938Z,24.47
2022-09-07T15:02:37.015Z,25.53
2022-09-07T15:05:13.102Z,25.32
2022-09-07T15:07:41.361Z,25.08
2022-09-07T15:10:21.066Z,24.59
2022-09-07T15:12:52.644Z,24.02
2022-09-07T15:15:21.429Z,23.84
2022-09-07T15:17:48.274Z,23.78
2022-09-07T15:20:47.535Z,24.33
2022-09-07T15:23:16.627Z,24.29
2022-09-07T15:25:49.792Z,23.88
2022-09-07T15:34:02.128Z,24.48
2022-09-07T15:36:28.911Z,24.27
2022-09-07T15:39:03.401Z,24.28
2022-09-07T15:41:30.685Z,24.53
2022-09-07T15:43:57.387Z,24.84
2022-09-07T15:46:25.076Z,25.15
2022-09-07T15:48:55.784Z,25.38
2022-09-07T15:54:14.250Z,26.24
2022-09-07T15:57:48.113Z,26.21
2022-09-07T15:59:31.175Z,25.52
2022-09-07T16:01:58.584Z,25.15
2022-09-07T16:04:25.408Z,25.10
2022-09-07T16:06:51.981Z,24.97
2022-09-07T16:09:21.829Z,25.12
2022-09-07T16:11:50.092Z,25.04
2022-09-07T16:14:17.564Z,24.69
2022-09-07T16:19:34.601Z,24.80
2022-09-07T16:22:01.857Z,24.78
2022-09-07T16:24:28.451Z,24.54
2022-09-07T16:26:55.062Z,24.38
2022-09-07T16:29:24.699Z,24.24
2022-09-07T16:34:39.762Z,24.19
2022-09-07T16:37:06.890Z,23.89
2022-09-07T16:39:33.836Z,24.41
2022-09-07T16:42:00.464Z,24.71
2022-09-07T16:44:27.004Z,24.85
2022-09-07T16:46:53.719Z,24.61
2022-09-07T16:49:20.395Z,24.28
2022-09-07T16:51:46.935Z,23.77
2022-09-07T16:54:14.450Z,23.71
2022-09-07T16:56:40.958Z,23.54
2022-09-07T16:59:09.541Z,23.45
2022-09-07T17:01:37.877Z,23.57
2022-09-07T17:04:10.429Z,23.23
2022-09-07T17:06:37.491Z,23.11
2022-09-07T17:09:04.359Z,23.10
2022-09-07T17:11:33.056Z,22.73
2022-09-07T17:14:00.280Z,22.78
2022-09-07T17:16:29.617Z,22.67
2022-09-07T17:21:46.163Z,22.42
2022-09-07T17:24:12.805Z,22.43
2022-09-07T17:26:42.120Z,22.39
2022-09-07T17:29:09.593Z,22.20
2022-09-07T17:34:24.447Z,22.06
2022-09-07T17:36:51.651Z,22.04
2022-09-07T17:39:19.299Z,22.02
2022-09-07T17:41:52.574Z,21.91
2022-09-07T17:44:19.546Z,21.94
2022-09-07T17:46:46.076Z,21.81
2022-09-07T17:49:14.378Z,21.81
2022-09-07T17:51:41.075Z,21.74
2022-09-07T17:54:11.677Z,21.68
2022-09-07T17:56:38.933Z,21.69
2022-09-07T18:01:54.065Z,21.72
2022-09-07T18:04:21.237Z,21.64
2022-09-07T18:06:47.927Z,21.64
2022-09-07T18:09:14.524Z,21.71
2022-09-07T18:11:47.072Z,21.68
2022-09-07T18:14:15.012Z,21.66
2022-09-07T18:16:42.978Z,21.64
2022-09-07T18:19:11.213Z,21.60
2022-09-07T18:21:38.472Z,21.67
2022-09-07T18:24:07.629Z,21.66
2022-09-07T18:26:38.358Z,21.66
2022-09-07T18:29:13.200Z,21.64
2022-09-07T18:31:45.862Z,21.63
2022-09-07T18:34:12.447Z,21.69
2022-09-07T18:36:40.747Z,21.67
2022-09-07T18:39:07.456Z,21.73
2022-09-07T18:41:34.854Z,21.73
2022-09-07T18:44:01.641Z,21.76
2022-09-07T18:46:28.353Z,21.70
2022-09-07T18:48:55.340Z,21.63
2022-09-07T18:51:21.977Z,21.66
2022-09-07T18:53:48.641Z,21.68
2022-09-07T18:56:17.667Z,21.61
2022-09-07T18:58:45.585Z,21.61
2022-09-07T19:01:14.574Z,21.55
2022-09-07T19:03:41.767Z,21.52
2022-09-07T19:06:10.790Z,21.54
2022-09-07T19:08:37.969Z,21.55
2022-09-07T19:11:08.287Z,21.55
2022-09-07T19:13:35.609Z,21.56
2022-09-07T19:16:14.213Z,21.59
2022-09-07T19:18:48.277Z,21.58
2022-09-07T19:21:17.057Z,21.57
2022-09-07T19:23:43.577Z,21.57
2022-09-07T19:26:10.413Z,21.54
2022-09-07T19:28:36.920Z,21.63
2022-09-07T19:31:04.934Z,21.66
2022-09-07T19:33:32.581Z,21.63
2022-09-07T19:36:06.085Z,21.56
2022-09-07T19:38:32.925Z,21.54
2022-09-07T19:41:00.423Z,21.32
2022-09-07T19:43:30.590Z,20.85
2022-09-07T19:45:57.101Z,20.21
2022-09-07T19:48:23.691Z,19.59
2022-09-07T19:50:50.844Z,19.14
2022-09-07T19:53:18.142Z,18.95
2022-09-07T19:55:44.889Z,18.75
2022-09-07T19:58:12.550Z,18.66
2022-09-07T20:00:41.787Z,18.55
2022-09-07T20:03:10.478Z,18.54
2022-09-07T20:05:40.765Z,18.45
2022-09-07T20:08:08.640Z,18.44
2022-09-07T20:10:36.324Z,18.39
2022-09-07T20:13:03.032Z,18.37
2022-09-07T20:15:29.575Z,18.35
2022-09-07T20:17:56.127Z,18.38
2022-09-07T20:20:22.676Z,18.39
2022-09-07T20:22:49.310Z,18.37
2022-09-07T20:25:15.808Z,18.29
2022-09-07T20:27:42.555Z,18.25
2022-09-07T20:30:09.593Z,18.22
2022-09-07T20:32:36.229Z,18.16
2022-09-07T20:35:02.721Z,18.12
2022-09-07T20:37:29.224Z,18.06
2022-09-07T20:39:55.933Z,17.93
2022-09-07T20:42:22.570Z,17.90
2022-09-07T20:44:49.029Z,17.89
2022-09-07T20:47:15.499Z,17.88
2022-09-07T20:49:42.383Z,17.83
2022-09-07T20:52:08.854Z,17.87
2022-09-07T20:54:37.677Z,17.84
2022-09-07T20:57:04.466Z,17.76
2022-09-07T20:59:30.939Z,17.67
2022-09-07T21:01:57.532Z,17.70
2022-09-07T21:04:26.386Z,17.76
2022-09-07T21:06:52.962Z,17.79
2022-09-07T21:09:19.933Z,17.81
2022-09-07T21:11:49.698Z,17.84
2022-09-07T21:14:17.827Z,17.79
2022-09-07T21:16:44.423Z,17.80
2022-09-07T21:19:13.817Z,17.82
2022-09-07T21:21:42.095Z,17.82
2022-09-07T21:24:20.410Z,17.87
2022-09-07T21:26:47.379Z,17.90
2022-09-07T21:29:17.242Z,17.86
2022-09-07T21:31:44.247Z,17.81
2022-09-07T21:34:10.959Z,17.82
2022-09-07T21:36:37.636Z,17.89
2022-09-07T21:39:04.392Z,17.85
2022-09-07T21:41:31.241Z,17.88
2022-09-07T21:43:59.227Z,17.90
2022-09-07T21:46:26.499Z,17.92
2022-09-07T21:48:55.228Z,17.93
2022-09-07T21:51:22.240Z,17.93
2022-09-07T21:53:57.236Z,17.94
2022-09-07T21:56:24.383Z,17.95
2022-09-07T21:58:55.448Z,17.91
2022-09-07T22:01:23.497Z,17.90
2022-09-07T22:04:01.454Z,17.91
2022-09-07T22:06:29.277Z,17.93
2022-09-07T22:08:55.940Z,17.92
2022-09-07T22:11:23.852Z,17.89
2022-09-07T22:13:53.907Z,17.90
2022-09-07T22:16:20.439Z,17.87
2022-09-07T22:18:47.061Z,17.85
2022-09-07T22:21:16.321Z,18.01
2022-09-07T22:23:45.444Z,18.03
2022-09-07T22:26:12.985Z,17.94
2022-09-07T22:28:39.640Z,17.95
2022-09-07T22:31:15.043Z,17.96
2022-09-07T22:33:42.196Z,17.98
2022-09-07T22:36:44.404Z,17.95
2022-09-07T22:39:14.108Z,18.00
2022-09-07T22:41:41.719Z,18.03
2022-09-07T22:44:11.546Z,18.02
2022-09-07T22:46:39.545Z,18.05
2022-09-07T22:49:06.908Z,18.07
2022-09-07T22:51:33.822Z,18.06
2022-09-07T22:54:00.779Z,18.08
2022-09-07T22:56:29.616Z,18.09
2022-09-07T22:58:58.287Z,18.08
2022-09-07T23:01:26.173Z,18.09
2022-09-07T23:03:53.515Z,18.09
2022-09-07T23:06:27.442Z,18.03
2022-09-07T23:08:55.571Z,18.06
2022-09-07T23:11:22.610Z,18.08
2022-09-07T23:13:53.139Z,18.10
2022-09-07T23:16:20.566Z,18.12
2022-09-07T23:18:47.174Z,18.15
2022-09-07T23:21:13.936Z,18.13
2022-09-07T23:23:40.424Z,18.19
2022-09-07T23:26:07.514Z,18.19
2022-09-07T23:28:34.425Z,18.16
2022-09-07T23:31:01.029Z,18.05
2022-09-07T23:33:27.713Z,17.98
2022-09-07T23:36:03.195Z,18.03
2022-09-07T23:38:30.292Z,18.00
2022-09-07T23:40:57.868Z,17.98
2022-09-07T23:43:27.128Z,17.94
2022-09-07T23:45:54.332Z,17.89
2022-09-07T23:48:21.646Z,17.80
2022-09-07T23:50:48.512Z,17.81
2022-09-07T23:53:15.648Z,17.80
2022-09-07T23:55:42.391Z,17.78
2022-09-07T23:58:09.440Z,17.80
